Time;durP1;ratioP1;P1;durP2;ratioP2;P2;SDS_P1;SDS_P2;PMS_P1;PMS_P2;Temp;Humidity;BMP_temperature;BMP_pressure;BME280_temperature;BME280_humidity;BME280_pressure;Samples;Min_cycle;Max_cycle;Signal;HPM_P1;HPM_P2
2021/04/18 00:00:54;;;;;;;29.25;25.42;;;256.60;2022.40;;;;;;5056957;28;20477;-82
2021/04/18 00:03:21;;;;;;;27.48;24.25;;;256.60;2022.40;;;;;;5056791;28;20373;-87
2021/04/18 00:05:47;;;;;;;28.40;24.15;;;256.60;2022.40;;;;;;5056606;28;20413;-85
2021/04/18 00:08:14;;;;;;;27.52;24.58;;;256.60;2022.40;;;;;;5056285;28;20373;-84
2021/04/18 00:10:40;;;;;;;29.35;24.55;;;256.70;2022.40;;;;;;5056261;28;20430;-84
2021/04/18 00:13:09;;;;;;;27.02;23.98;;;256.60;2073.60;;;;;;5038497;28;20351;-73
2021/04/18 00:15:38;;;;;;;34.17;27.55;;;256.50;2073.60;;;;;;5039029;28;20408;-84
2021/04/18 00:18:06;;;;;;;37.45;29.20;;;256.20;2099.20;;;;;;5038575;28;20412;-73
2021/04/18 00:20:33;;;;;;;36.05;27.55;;;256.20;2099.20;;;;;;5038029;28;20438;-85
2021/04/18 00:22:59;;;;;;;36.25;29.40;;;256.00;2150.40;;;;;;5056090;28;20355;-86
2021/04/18 00:25:25;;;;;;;26.40;23.48;;;231.30;2176.00;;;;;;5038154;28;20123;-84
2021/04/18 00:27:52;;;;;;;25.95;22.35;;;256.10;2099.20;;;;;;5055921;28;20406;-85
2021/04/18 00:30:20;;;;;;;24.67;21.75;;;256.00;2150.40;;;;;;5055868;28;20366;-85
2021/04/18 00:32:47;;;;;;;25.67;22.52;;;256.10;2124.80;;;;;;5055897;28;20164;-84
2021/04/18 00:35:18;;;;;;;26.70;22.45;;;256.10;2124.80;;;;;;5038355;28;20104;-87
2021/04/18 00:37:44;;;;;;;25.55;21.73;;;256.20;2099.20;;;;;;5056084;28;20437;-74
2021/04/18 00:40:14;;;;;;;26.95;23.85;;;256.20;2099.20;;;;;;5055994;28;20362;-86
2021/04/18 00:42:41;;;;;;;25.33;22.58;;;256.20;2099.20;;;;;;5055600;28;20370;-86
2021/04/18 00:45:10;;;;;;;27.92;23.88;;;231.30;2176.00;;;;;;5055665;28;20526;-87
2021/04/18 00:47:44;;;;;;;25.95;23.15;;;231.20;2201.60;;;;;;5037883;28;20474;-72
2021/04/18 00:50:12;;;;;;;28.15;23.58;;;231.30;2150.40;;;;;;5055460;28;20431;-85
2021/04/18 00:52:39;;;;;;;27.02;23.70;;;231.30;2176.00;;;;;;5037800;28;20373;-85
2021/04/18 00:55:09;;;;;;;29.13;23.40;;;231.30;2176.00;;;;;;5055600;28;20531;-82
2021/04/18 00:57:36;;;;;;;31.23;25.70;;;231.30;2176.00;;;;;;5055658;28;20361;-84
2021/04/18 01:00:05;;;;;;;29.83;25.45;;;231.30;2176.00;;;;;;5037601;28;20368;-86
2021/04/18 01:02:31;;;;;;;27.92;24.17;;;256.00;2176.00;;;;;;5055430;28;20425;-86
2021/04/18 01:04:57;;;;;;;27.25;23.55;;;231.30;2176.00;;;;;;5055303;28;20408;-86
2021/04/18 01:07:23;;;;;;;32.03;24.70;;;231.20;2201.60;;;;;;5037623;28;20373;-84
2021/04/18 01:09:50;;;;;;;29.77;25.38;;;256.00;2150.40;;;;;;5055226;28;20021;-86
2021/04/18 01:12:16;;;;;;;32.85;27.20;;;231.10;2227.20;;;;;;5055142;28;20374;-85
2021/04/18 01:14:43;;;;;;;32.40;28.35;;;231.20;2227.20;;;;;;5055168;28;20404;-86
2021/04/18 01:17:09;;;;;;;32.25;28.58;;;231.20;2201.60;;;;;;5055135;28;20402;-86
2021/04/18 01:19:35;;;;;;;33.95;27.58;;;231.10;2227.20;;;;;;5055417;28;20365;-82
2021/04/18 01:22:02;;;;;;;35.63;29.20;;;231.00;2252.80;;;;;;5055209;28;20416;-86
2021/04/18 01:24:28;;;;;;;30.48;26.80;;;230.90;2252.80;;;;;;5055280;28;20473;-86
2021/04/18 01:26:55;;;;;;;30.50;27.15;;;230.90;2252.80;;;;;;5054891;28;20484;-74
2021/04/18 01:29:21;;;;;;;32.67;26.80;;;230.70;2252.80;;;;;;5054823;28;20445;-79
2021/04/18 01:31:47;;;;;;;34.60;27.48;;;230.80;2252.80;;;;;;5053970;28;20090;-85
2021/04/18 01:34:14;;;;;;;29.20;25.30;;;230.90;2252.80;;;;;;5054704;28;20361;-86
2021/04/18 01:36:45;;;;;;;29.73;26.45;;;231.00;2252.80;;;;;;5054843;28;20361;-86
2021/04/18 01:39:13;;;;;;;29.13;23.90;;;230.90;2252.80;;;;;;5054506;28;20442;-85
2021/04/18 01:41:40;;;;;;;33.67;26.45;;;230.90;2252.80;;;;;;5036673;28;20437;-86
2021/04/18 01:44:12;;;;;;;31.17;26.48;;;231.00;2201.60;;;;;;5036668;28;20343;-73
2021/04/18 01:46:40;;;;;;;28.25;24.35;;;231.30;2176.00;;;;;;5054425;28;20465;-85
2021/04/18 01:49:06;;;;;;;26.13;23.33;;;231.20;2201.60;;;;;;5033144;28;20470;-85
2021/04/18 01:51:33;;;;;;;26.88;23.55;;;231.00;2227.20;;;;;;5034611;28;20441;-86
2021/04/18 01:54:00;;;;;;;29.27;24.15;;;231.00;2227.20;;;;;;5034654;28;20350;-86
2021/04/18 01:56:26;;;;;;;29.65;23.95;;;231.00;2227.20;;;;;;5034595;28;20441;-86
2021/04/18 01:58:52;;;;;;;28.90;24.40;;;230.90;2252.80;;;;;;5034311;28;20017;-86
2021/04/18 02:01:19;;;;;;;30.23;25.02;;;230.90;2252.80;;;;;;5034368;28;20484;-81
2021/04/18 02:03:45;;;;;;;27.88;24.88;;;231.00;2227.20;;;;;;5034366;28;20481;-81
2021/04/18 02:06:12;;;;;;;28.05;25.05;;;231.00;2227.20;;;;;;5034409;28;20467;-86
2021/04/18 02:08:38;;;;;;;28.35;25.17;;;231.00;2252.80;;;;;;5034422;28;20441;-74
2021/04/18 02:11:04;;;;;;;29.00;25.00;;;230.80;2252.80;;;;;;5034126;28;20382;-75
2021/04/18 02:13:31;;;;;;;28.13;24.98;;;230.80;2252.80;;;;;;5034301;28;20407;-85
2021/04/18 02:15:57;;;;;;;28.92;25.20;;;231.00;2252.80;;;;;;5034157;28;20407;-87
2021/04/18 02:18:24;;;;;;;32.42;26.45;;;230.80;2252.80;;;;;;5034222;28;20324;-85
2021/04/18 02:20:50;;;;;;;28.00;24.88;;;230.90;2252.80;;;;;;5034100;28;20362;-87
2021/04/18 02:23:16;;;;;;;31.17;26.83;;;231.00;2227.20;;;;;;5034127;28;20148;-85
2021/04/18 02:25:43;;;;;;;29.70;24.73;;;231.10;2201.60;;;;;;5034041;28;20370;-86
2021/04/18 02:28:09;;;;;;;31.15;26.60;;;231.10;2227.20;;;;;;5032976;28;20358;-86
2021/04/18 02:30:36;;;;;;;30.55;25.85;;;231.10;2227.20;;;;;;5033076;28;20397;-84
2021/04/18 02:33:02;;;;;;;28.92;23.95;;;231.10;2201.60;;;;;;5034048;28;20354;-86
2021/04/18 02:35:28;;;;;;;28.17;24.73;;;231.00;2227.20;;;;;;5033959;28;20429;-86
2021/04/18 02:37:55;;;;;;;29.17;24.27;;;231.00;2227.20;;;;;;5016518;28;20424;-74
2021/04/18 02:40:21;;;;;;;27.17;23.92;;;230.90;2252.80;;;;;;5033970;28;20339;-86
2021/04/18 02:42:47;;;;;;;28.67;24.25;;;231.00;2227.20;;;;;;5032936;28;20434;-86
2021/04/18 02:45:14;;;;;;;27.23;24.10;;;230.80;2252.80;;;;;;5039361;28;20358;-87
2021/04/18 02:47:41;;;;;;;27.42;24.38;;;230.90;2227.20;;;;;;5040773;28;20433;-86
2021/04/18 02:50:08;;;;;;;25.80;22.35;;;231.00;2227.20;;;;;;5052753;28;20377;-86
2021/04/18 02:52:34;;;;;;;24.05;21.42;;;231.00;2227.20;;;;;;5060792;28;20398;-78
2021/04/18 02:55:01;;;;;;;30.92;24.35;;;231.00;2227.20;;;;;;5042730;28;20365;-86
2021/04/18 02:57:27;;;;;;;26.45;23.50;;;231.00;2227.20;;;;;;5060451;28;20466;-85
2021/04/18 02:59:53;;;;;;;27.80;23.98;;;230.90;2252.80;;;;;;5060401;28;20025;-86
2021/04/18 03:02:20;;;;;;;28.23;25.00;;;230.90;2252.80;;;;;;5060198;28;20370;-86
2021/04/18 03:04:47;;;;;;;33.30;27.00;;;230.90;2227.20;;;;;;5060484;28;20335;-84
2021/04/18 03:07:13;;;;;;;34.17;27.67;;;230.70;2252.80;;;;;;5060171;28;20409;-86
2021/04/18 03:09:39;;;;;;;34.17;27.50;;;230.80;2252.80;;;;;;5042241;28;20361;-85
2021/04/18 03:12:06;;;;;;;29.15;24.77;;;230.70;2252.80;;;;;;5042305;28;20444;-85
2021/04/18 03:14:32;;;;;;;28.63;24.45;;;230.90;2227.20;;;;;;5060264;28;20408;-85
2021/04/18 03:16:58;;;;;;;29.40;24.85;;;230.90;2227.20;;;;;;5060397;28;20350;-85
2021/04/18 03:19:24;;;;;;;31.27;26.92;;;230.90;2227.20;;;;;;5060201;28;20401;-84
2021/04/18 03:21:50;;;;;;;29.98;24.42;;;231.00;2227.20;;;;;;5059948;28;20481;-86
2021/04/18 03:24:17;;;;;;;27.50;23.17;;;231.10;2201.60;;;;;;5041693;28;20384;-85
2021/04/18 03:26:43;;;;;;;28.67;24.85;;;231.00;2227.20;;;;;;5059984;28;20334;-85
2021/04/18 03:29:09;;;;;;;27.15;24.17;;;231.20;2201.60;;;;;;5060075;28;20366;-85
2021/04/18 03:31:35;;;;;;;25.20;22.48;;;231.10;2201.60;;;;;;5042176;28;20458;-81
2021/04/18 03:34:01;;;;;;;28.33;23.77;;;231.10;2201.60;;;;;;5060115;28;20021;-85
2021/04/18 03:36:27;;;;;;;28.45;24.40;;;230.90;2227.20;;;;;;5060241;28;20374;-85
2021/04/18 03:38:53;;;;;;;27.67;24.05;;;230.80;2227.20;;;;;;5059986;28;20357;-84
2021/04/18 03:41:19;;;;;;;27.40;23.75;;;231.00;2227.20;;;;;;5059907;28;20343;-86
2021/04/18 03:43:45;;;;;;;27.23;23.02;;;231.00;2227.20;;;;;;5060087;28;20480;-84
2021/04/18 03:46:11;;;;;;;25.75;22.27;;;230.80;2252.80;;;;;;5060227;28;20398;-85
2021/04/18 03:48:37;;;;;;;25.85;22.60;;;230.80;2227.20;;;;;;5060070;28;20021;-74
2021/04/18 03:51:04;;;;;;;29.52;23.60;;;230.70;2252.80;;;;;;5060085;28;20073;-86
2021/04/18 03:53:30;;;;;;;27.80;24.00;;;230.60;2252.80;;;;;;5059851;28;20363;-86
2021/04/18 03:55:56;;;;;;;29.27;25.05;;;230.70;2252.80;;;;;;5056964;28;20401;-86
2021/04/18 03:58:22;;;;;;;30.75;25.45;;;230.70;2252.80;;;;;;5057545;28;20327;-87
2021/04/18 04:00:48;;;;;;;30.83;26.33;;;230.70;2252.80;;;;;;5056509;28;20369;-88
2021/04/18 04:03:14;;;;;;;31.17;27.75;;;230.80;2252.80;;;;;;5038858;28;20382;-79
2021/04/18 04:05:40;;;;;;;30.75;25.40;;;230.70;2252.80;;;;;;5056527;28;20343;-87
2021/04/18 04:08:07;;;;;;;29.55;26.10;;;230.90;2227.20;;;;;;5056401;28;20082;-85
2021/04/18 04:10:33;;;;;;;29.73;24.42;;;230.80;2227.20;;;;;;5056219;28;20373;-86
2021/04/18 04:12:59;;;;;;;32.58;27.77;;;230.70;2252.80;;;;;;5056395;28;20450;-86
2021/04/18 04:15:25;;;;;;;31.92;26.20;;;230.80;2252.80;;;;;;5056405;28;20479;-84
2021/04/18 04:17:51;;;;;;;35.60;28.50;;;230.70;2252.80;;;;;;5056438;28;20564;-85
2021/04/18 04:20:17;;;;;;;34.35;28.58;;;230.90;2227.20;;;;;;5038494;28;20393;-86
2021/04/18 04:22:44;;;;;;;39.22;29.58;;;230.90;2227.20;;;;;;5056123;28;20426;-86
2021/04/18 04:25:11;;;;;;;39.17;29.95;;;230.80;2252.80;;;;;;5056332;28;20500;-86
2021/04/18 04:27:38;;;;;;;41.67;28.95;;;230.80;2252.80;;;;;;5038947;28;20434;-78
2021/04/18 04:30:05;;;;;;;35.00;27.83;;;231.00;2201.60;;;;;;5056336;28;20432;-75
2021/04/18 04:32:31;;;;;;;35.42;30.15;;;230.80;2252.80;;;;;;5056413;28;20423;-85
2021/04/18 04:34:58;;;;;;;35.50;28.58;;;230.90;2227.20;;;;;;5056180;28;20412;-86
2021/04/18 04:37:24;;;;;;;35.53;27.95;;;231.00;2227.20;;;;;;5055888;28;20346;-75
2021/04/18 04:39:50;;;;;;;33.78;28.17;;;231.00;2201.60;;;;;;5055980;28;20428;-86
2021/04/18 04:42:16;;;;;;;37.15;28.75;;;231.00;2201.60;;;;;;5055842;28;20381;-86
2021/04/18 04:44:43;;;;;;;33.20;28.17;;;231.10;2201.60;;;;;;5055815;28;20335;-86
2021/04/18 04:47:09;;;;;;;37.65;30.48;;;231.10;2201.60;;;;;;5055782;28;20376;-87
2021/04/18 04:49:35;;;;;;;38.80;30.80;;;231.10;2201.60;;;;;;5055646;28;20385;-84
2021/04/18 04:52:01;;;;;;;45.70;34.03;;;231.00;2227.20;;;;;;5037882;28;20347;-86
2021/04/18 04:54:27;;;;;;;52.30;36.78;;;230.80;2252.80;;;;;;5055706;28;20540;-85
2021/04/18 04:56:53;;;;;;;49.20;36.90;;;230.90;2252.80;;;;;;5055651;28;20352;-86
2021/04/18 04:59:19;;;;;;;46.22;35.95;;;231.00;2227.20;;;;;;5037666;28;20366;-86
2021/04/18 05:01:46;;;;;;;40.67;32.70;;;230.90;2252.80;;;;;;5055344;28;20361;-74
2021/04/18 05:04:12;;;;;;;42.05;33.05;;;230.80;2252.80;;;;;;5055070;28;20355;-82
2021/04/18 05:06:38;;;;;;;39.33;32.45;;;230.80;2252.80;;;;;;5036273;28;20366;-83
2021/04/18 05:09:04;;;;;;;34.85;29.80;;;230.90;2252.80;;;;;;5036879;28;20377;-81
2021/04/18 05:11:30;;;;;;;36.50;31.02;;;230.90;2252.80;;;;;;5037431;28;20067;-82
2021/04/18 05:13:56;;;;;;;40.30;32.83;;;231.00;2227.20;;;;;;5054993;28;20021;-82
2021/04/18 05:16:22;;;;;;;42.13;33.20;;;231.10;2201.60;;;;;;5037184;28;20404;-82
2021/04/18 05:18:48;;;;;;;43.78;34.53;;;231.20;2201.60;;;;;;5054893;28;20502;-74
2021/04/18 05:21:15;;;;;;;36.20;29.98;;;231.10;2201.60;;;;;;5036877;28;20373;-78
2021/04/18 05:23:41;;;;;;;39.10;31.63;;;231.10;2201.60;;;;;;5054710;28;20377;-82
2021/04/18 05:26:07;;;;;;;38.55;30.45;;;231.00;2252.80;;;;;;5054904;28;20538;-77
2021/04/18 05:28:34;;;;;;;42.90;33.13;;;231.00;2201.60;;;;;;5036913;28;20461;-82
2021/04/18 05:31:00;;;;;;;42.72;33.45;;;231.00;2227.20;;;;;;5054545;28;20480;-82
2021/04/18 05:33:26;;;;;;;43.25;32.95;;;231.00;2201.60;;;;;;5054614;28;20455;-82
2021/04/18 05:35:52;;;;;;;43.72;34.33;;;231.00;2227.20;;;;;;5054563;28;20481;-83
2021/04/18 05:38:18;;;;;;;41.85;32.63;;;231.00;2252.80;;;;;;5054687;28;20476;-75
2021/04/18 05:40:45;;;;;;;35.95;30.58;;;230.80;2252.80;;;;;;5036601;28;20384;-75
2021/04/18 05:43:11;;;;;;;34.72;30.10;;;231.00;2227.20;;;;;;5054475;28;20478;-82
2021/04/18 05:45:37;;;;;;;36.08;31.10;;;231.00;2252.80;;;;;;5054278;28;20362;-79
2021/04/18 05:48:04;;;;;;;36.25;29.38;;;231.00;2227.20;;;;;;5036422;28;20452;-82
2021/04/18 05:50:30;;;;;;;36.55;30.15;;;231.00;2227.20;;;;;;5036170;28;20045;-75
2021/04/18 05:52:57;;;;;;;39.33;31.17;;;231.20;2227.20;;;;;;5054373;28;20361;-81
2021/04/18 05:55:23;;;;;;;38.33;29.67;;;231.10;2227.20;;;;;;5054272;28;20438;-82
2021/04/18 05:57:49;;;;;;;39.72;31.63;;;231.10;2227.20;;;;;;5054104;28;20351;-82
2021/04/18 06:00:15;;;;;;;44.83;33.92;;;231.00;2227.20;;;;;;5054342;28;20365;-76
2021/04/18 06:02:42;;;;;;;54.70;38.60;;;231.10;2227.20;;;;;;5054007;28;20426;-77
2021/04/18 06:05:08;;;;;;;41.78;31.92;;;231.10;2227.20;;;;;;5054057;28;20374;-84
2021/04/18 06:07:35;;;;;;;37.53;30.05;;;231.20;2227.20;;;;;;5054219;28;20412;-75
2021/04/18 06:13:22;;;;;;;38.97;30.58;;;231.30;2227.20;;;;;;5054163;28;20024;-83
2021/04/18 06:15:49;;;;;;;44.75;32.55;;;231.30;2227.20;;;;;;5053846;28;20025;-73
2021/04/18 06:18:15;;;;;;;42.45;32.15;;;231.30;2227.20;;;;;;5053428;28;20370;-75
2021/04/18 06:20:41;;;;;;;39.72;30.55;;;231.30;2227.20;;;;;;5053757;28;20454;-74
2021/04/18 06:23:07;;;;;;;45.80;33.78;;;231.20;2252.80;;;;;;5053661;28;20473;-82
2021/04/18 06:25:33;;;;;;;37.75;29.48;;;231.20;2252.80;;;;;;5053966;28;20408;-73
2021/04/18 06:27:59;;;;;;;38.85;29.90;;;231.20;2252.80;;;;;;5053685;28;20412;-73
2021/04/18 06:30:25;;;;;;;35.00;28.67;;;231.30;2227.20;;;;;;5054025;28;20357;-74
2021/04/18 06:32:51;;;;;;;72.50;53.38;;;231.30;2227.20;;;;;;5035763;28;20350;-73
2021/04/18 06:35:17;;;;;;;89.78;60.30;;;256.00;2201.60;;;;;;5035706;28;20374;-73
2021/04/18 06:37:43;;;;;;;72.00;49.05;;;231.30;2227.20;;;;;;5053673;28;20416;-81
2021/04/18 06:40:10;;;;;;;65.97;45.28;;;231.20;2252.80;;;;;;5053571;28;20441;-82
2021/04/18 06:42:38;;;;;;;61.90;41.42;;;231.20;2252.80;;;;;;5053451;28;20362;-74
2021/04/18 06:45:09;;;;;;;68.80;47.28;;;256.00;2227.20;;;;;;5035759;28;20422;-73
2021/04/18 06:47:37;;;;;;;44.40;33.03;;;256.10;2227.20;;;;;;5053634;28;20350;-73
2021/04/18 06:50:06;;;;;;;65.43;48.60;;;256.00;2201.60;;;;;;5053875;28;20389;-82
2021/04/18 06:52:34;;;;;;;50.72;40.28;;;256.20;2201.60;;;;;;5053489;28;20354;-73
2021/04/18 06:55:01;;;;;;;169.57;87.05;;;256.20;2201.60;;;;;;5053539;28;20480;-73
2021/04/18 06:57:27;;;;;;;180.07;87.85;;;256.30;2201.60;;;;;;5035633;28;20342;-82
2021/04/18 06:59:54;;;;;;;196.60;91.43;;;256.20;2201.60;;;;;;5053356;28;20376;-75
2021/04/18 07:02:28;;;;;;;382.00;159.45;;;256.20;2201.60;;;;;;5053356;28;20408;-80
2021/04/18 07:04:59;;;;;;;294.30;130.73;;;256.10;2227.20;;;;;;5053360;28;20338;-75
2021/04/18 07:07:30;;;;;;;318.08;129.45;;;256.30;2201.60;;;;;;5035759;28;20386;-82
2021/04/18 07:09:57;;;;;;;1127.32;473.60;;;256.00;2252.80;;;;;;5053315;28;20393;-83
2021/04/18 07:12:28;;;;;;;520.40;204.88;;;256.10;2252.80;;;;;;5035677;28;20366;-85
2021/04/18 07:14:55;;;;;;;532.53;216.35;;;256.20;2201.60;;;;;;5035696;28;20469;-82
2021/04/18 07:17:21;;;;;;;363.90;139.00;;;256.20;2252.80;;;;;;5053590;28;20362;-84
2021/04/18 07:19:51;;;;;;;708.40;308.75;;;256.30;2227.20;;;;;;5053726;28;20416;-83
2021/04/18 07:22:29;;;;;;;575.97;230.55;;;256.30;2201.60;;;;;;5053438;28;20361;-83
2021/04/18 07:25:02;;;;;;;441.63;168.13;;;256.20;2252.80;;;;;;5053120;28;20092;-74
2021/04/18 07:27:50;;;;;;;605.03;236.55;;;256.10;2252.80;;;;;;5053253;28;20532;-83
2021/04/18 07:30:23;;;;;;;431.40;153.23;;;256.10;2252.80;;;;;;5036025;28;20412;-73
2021/04/18 07:33:08;;;;;;;340.50;125.15;;;256.20;2252.80;;;;;;5057062;28;20441;-73
2021/04/18 07:35:36;;;;;;;331.65;118.97;;;256.20;2252.80;;;;;;5057108;28;20508;-82
2021/04/18 07:38:16;;;;;;;312.10;108.28;;;256.00;2252.80;;;;;;5039178;28;20366;-83
2021/04/18 07:40:42;;;;;;;194.02;74.72;;;256.20;2252.80;;;;;;5039977;28;20365;-82
2021/04/18 07:43:10;;;;;;;387.27;126.68;;;256.10;2252.80;;;;;;5056624;28;20448;-74
2021/04/18 07:45:38;;;;;;;576.88;197.82;;;256.20;2252.80;;;;;;5056447;28;20365;-74
2021/04/18 07:48:08;;;;;;;657.72;230.52;;;256.10;2252.80;;;;;;5056664;28;20397;-80
2021/04/18 07:50:35;;;;;;;443.52;138.48;;;256.10;2252.80;;;;;;5038724;28;20389;-77
2021/04/18 07:53:02;;;;;;;322.48;108.30;;;256.10;2252.80;;;;;;5038412;28;20456;-74
2021/04/18 07:55:31;;;;;;;107.20;40.72;;;256.60;2252.80;;;;;;5056292;28;20377;-83
2021/04/18 07:57:57;;;;;;;117.65;49.13;;;256.00;2252.80;;;;;;5056567;28;20369;-78
2021/04/18 08:00:24;;;;;;;33.47;24.00;;;256.00;2252.80;;;;;;5056643;28;20484;-81
2021/04/18 08:02:52;;;;;;;34.17;25.55;;;256.00;2252.80;;;;;;5038211;28;20547;-74
2021/04/18 08:05:22;;;;;;;42.08;28.33;;;256.10;2252.80;;;;;;5057001;28;20450;-76
2021/04/18 08:08:02;;;;;;;65.38;38.72;;;256.10;2252.80;;;;;;5056147;28;20381;-74
2021/04/18 08:10:34;;;;;;;74.45;41.28;;;256.20;2252.80;;;;;;5056558;28;20468;-79
2021/04/18 08:13:08;;;;;;;78.72;36.35;;;256.40;2252.80;;;;;;5056637;28;20397;-82
2021/04/18 08:15:34;;;;;;;;;;;256.30;2252.80;;;;;;5056975;28;20450;-84
2021/04/18 08:18:15;;;;;;;68.28;48.15;;;256.20;2252.80;;;;;;5056511;28;20296;-84
2021/04/18 08:20:43;;;;;;;26.63;20.48;;;256.30;2252.80;;;;;;5056156;28;20362;-71
2021/04/18 08:23:13;;;;;;;27.30;20.83;;;256.40;2252.80;;;;;;5056464;28;20354;-84
2021/04/18 08:26:06;;;;;;;25.15;20.05;;;256.30;2252.80;;;;;;5056893;28;20438;-81
2021/04/18 08:28:53;;;;;;;22.10;18.33;;;256.30;2252.80;;;;;;5056118;28;20376;-81
2021/04/18 08:31:30;;;;;;;21.92;16.88;;;256.20;2252.80;;;;;;5056370;28;20438;-80
2021/04/18 08:33:58;;;;;;;17.67;13.55;;;256.30;2252.80;;;;;;5056152;28;20438;-87
2021/04/18 08:36:27;;;;;;;26.00;18.70;;;256.30;2227.20;;;;;;5056170;28;20547;-84
2021/04/18 08:39:05;;;;;;;16.10;12.48;;;256.20;2227.20;;;;;;5056059;28;20441;-82
2021/04/18 08:41:47;;;;;;;37.42;23.20;;;256.20;2201.60;;;;;;5037256;28;20373;-79
2021/04/18 08:44:25;;;;;;;79.32;41.42;;;256.30;2201.60;;;;;;5037804;28;20028;-80
2021/04/18 08:47:14;;;;;;;38.30;24.05;;;256.30;2176.00;;;;;;5055813;28;20021;-80
2021/04/18 08:49:45;;;;;;;39.58;27.25;;;256.30;2201.60;;;;;;5055231;28;20385;-71
2021/04/18 08:52:16;;;;;;;17.20;14.25;;;256.20;2227.20;;;;;;5055598;28;20353;-81
2021/04/18 08:54:46;;;;;;;42.88;30.85;;;256.30;2201.60;;;;;;5037657;28;20440;-80
2021/04/18 08:57:21;;;;;;;29.77;23.75;;;256.40;2201.60;;;;;;5055485;28;20043;-80
2021/04/18 08:59:58;;;;;;;38.20;26.73;;;256.50;2176.00;;;;;;5055520;28;20353;-80
2021/04/18 09:02:26;;;;;;;32.35;20.98;;;256.40;2201.60;;;;;;5055037;28;20442;-78
2021/04/18 09:04:56;;;;;;;27.33;19.48;;;256.40;2176.00;;;;;;5054947;28;20528;-80
2021/04/18 09:07:25;;;;;;;23.08;17.70;;;256.50;2201.60;;;;;;5055198;28;20479;-79
2021/04/18 09:09:52;;;;;;;26.73;18.02;;;256.60;2176.00;;;;;;5055045;28;20484;-82
2021/04/18 09:12:18;;;;;;;23.92;16.50;;;256.70;2150.40;;;;;;5055138;28;20492;-80
2021/04/18 09:14:47;;;;;;;16.58;12.93;;;256.60;2201.60;;;;;;5054710;28;20412;-74
2021/04/18 09:17:25;;;;;;;18.05;13.40;;;256.60;2150.40;;;;;;5055000;28;20057;-83
2021/04/18 09:20:00;;;;;;;24.08;17.83;;;256.60;2150.40;;;;;;5054612;28;20358;-71
2021/04/18 09:22:30;;;;;;;34.00;22.05;;;256.80;2150.40;;;;;;5054846;28;20064;-71
2021/04/18 09:25:06;;;;;;;31.27;20.77;;;256.80;2124.80;;;;;;5054563;28;20385;-81
2021/04/18 09:27:42;;;;;;;17.58;12.55;;;256.70;2150.40;;;;;;5054914;28;20461;-71
2021/04/18 09:30:12;;;;;;;14.98;11.65;;;256.80;2150.40;;;;;;5054527;28;20347;-72
2021/04/18 09:32:47;;;;;;;30.42;16.63;;;281.60;2150.40;;;;;;5054810;28;20358;-80
2021/04/18 09:35:15;;;;;;;12.40;10.82;;;281.60;2150.40;;;;;;5036634;28;20475;-71
2021/04/18 09:38:05;;;;;;;13.65;10.45;;;256.90;2150.40;;;;;;5054684;28;20382;-73
2021/04/18 09:40:34;;;;;;;11.25;9.63;;;281.70;2150.40;;;;;;5054516;28;20462;-80
2021/04/18 09:43:02;;;;;;;23.02;16.38;;;256.80;2124.80;;;;;;5054206;28;20343;-83
2021/04/18 09:45:31;;;;;;;21.55;16.00;;;256.90;2150.40;;;;;;5054358;28;20397;-75
2021/04/18 09:48:14;;;;;;;27.20;19.60;;;281.60;2176.00;;;;;;5053961;28;20418;-85
2021/04/18 09:50:41;;;;;;;29.65;18.67;;;281.60;2150.40;;;;;;5053918;28;20401;-71
2021/04/18 09:53:24;;;;;;;33.17;20.83;;;281.60;2150.40;;;;;;5053436;28;20374;-72
2021/04/18 09:56:05;;;;;;;25.23;14.98;;;281.70;2150.40;;;;;;5053986;28;20469;-73
2021/04/18 09:58:35;;;;;;;33.75;17.90;;;281.70;2150.40;;;;;;5054077;28;20470;-74
2021/04/18 10:01:03;;;;;;;31.95;17.27;;;281.70;2150.40;;;;;;5054085;28;20377;-87
2021/04/18 10:03:38;;;;;;;34.00;22.40;;;281.80;2099.20;;;;;;5054417;28;20367;-87
2021/04/18 10:06:05;;;;;;;13.18;10.38;;;281.70;2150.40;;;;;;5036780;28;20345;-71
2021/04/18 10:08:39;;;;;;;17.85;11.55;;;281.70;2099.20;;;;;;5054044;28;20483;-71
2021/04/18 10:11:08;;;;;;;24.42;15.07;;;281.70;2150.40;;;;;;5053850;28;20400;-71
2021/04/18 10:13:41;;;;;;;12.57;8.82;;;281.80;2099.20;;;;;;5053669;28;20500;-72
2021/04/18 10:16:14;;;;;;;12.38;8.35;;;282.00;2099.20;;;;;;5053460;28;20430;-71
2021/04/18 10:18:54;;;;;;;14.32;10.93;;;282.00;2099.20;;;;;;5053456;28;20438;-75
2021/04/18 10:21:23;;;;;;;12.73;9.23;;;282.10;2099.20;;;;;;5053632;28;20017;-74
2021/04/18 10:23:51;;;;;;;14.98;10.43;;;282.10;2073.60;;;;;;5053344;28;20404;-72
2021/04/18 10:26:19;;;;;;;15.40;10.55;;;282.20;2099.20;;;;;;5053240;28;20382;-70
2021/04/18 10:28:47;;;;;;;13.82;10.30;;;282.20;2099.20;;;;;;5053828;28;20506;-70
2021/04/18 10:31:15;;;;;;;12.57;9.85;;;282.20;2073.60;;;;;;5053450;28;20366;-72
2021/04/18 10:33:42;;;;;;;15.02;9.90;;;282.20;2073.60;;;;;;5053542;28;20531;-79
2021/04/18 10:36:09;;;;;;;10.95;8.52;;;282.30;2073.60;;;;;;5053335;28;20372;-70
2021/04/18 10:38:35;;;;;;;11.93;8.48;;;282.40;2073.60;;;;;;5053375;28;20470;-72
2021/04/18 10:41:02;;;;;;;11.90;9.60;;;307.20;2073.60;;;;;;5035361;28;20420;-73
2021/04/18 10:43:28;;;;;;;74.38;31.30;;;282.50;2022.40;;;;;;5053111;28;20389;-68
2021/04/18 10:45:55;;;;;;;9.90;6.47;;;282.40;2048.00;;;;;;5053224;28;20342;-68
2021/04/18 10:48:21;;;;;;;10.65;6.20;;;282.50;2022.40;;;;;;5053211;28;20416;-70
2021/04/18 10:50:47;;;;;;;9.07;7.22;;;282.40;1996.80;;;;;;5052993;28;20497;-69
2021/04/18 10:53:13;;;;;;;8.82;6.95;;;282.50;1996.80;;;;;;5053091;28;20103;-69
2021/04/18 10:55:42;;;;;;;11.95;8.55;;;282.40;1996.80;;;;;;5053187;28;20362;-75
2021/04/18 10:58:08;;;;;;;13.27;9.68;;;282.40;2022.40;;;;;;5052968;28;20450;-69
2021/04/18 11:00:35;;;;;;;12.85;8.55;;;282.30;2048.00;;;;;;5052948;28;20447;-73
2021/04/18 11:03:01;;;;;;;16.33;10.20;;;282.40;2048.00;;;;;;5052830;28;20374;-73
2021/04/18 11:05:27;;;;;;;11.30;8.02;;;282.40;2048.00;;;;;;5055659;28;20469;-79
2021/04/18 11:07:53;;;;;;;9.70;6.22;;;282.50;2022.40;;;;;;5057717;28;20424;-68
2021/04/18 11:10:20;;;;;;;14.23;8.88;;;282.50;1996.80;;;;;;5056964;28;20405;-69
2021/04/18 11:12:46;;;;;;;22.35;14.35;;;307.20;2048.00;;;;;;5056978;28;20366;-68
2021/04/18 11:15:12;;;;;;;15.45;11.05;;;307.20;2073.60;;;;;;5056825;28;20364;-75
2021/04/18 11:17:39;;;;;;;18.35;12.48;;;307.20;2048.00;;;;;;5056895;28;20393;-73
2021/04/18 11:20:10;;;;;;;10.43;8.80;;;307.20;2048.00;;;;;;5057096;28;20373;-68
2021/04/18 11:22:38;;;;;;;11.05;8.05;;;307.20;2048.00;;;;;;5056712;28;20409;-68
2021/04/18 11:25:10;;;;;;;12.73;9.93;;;307.20;2022.40;;;;;;5056809;28;20392;-68
2021/04/18 11:27:37;;;;;;;14.63;9.85;;;307.20;2022.40;;;;;;5056657;28;20450;-69
2021/04/18 11:30:09;;;;;;;26.67;17.15;;;282.40;2048.00;;;;;;5056666;28;20389;-69
2021/04/18 11:32:35;;;;;;;14.35;9.55;;;282.40;2048.00;;;;;;5038756;28;20394;-71
2021/04/18 11:35:03;;;;;;;21.63;14.60;;;282.40;1996.80;;;;;;5056483;28;20462;-70
2021/04/18 11:37:29;;;;;;;16.35;11.07;;;282.30;2022.40;;;;;;5056578;28;20384;-69
2021/04/18 11:39:56;;;;;;;12.18;9.43;;;282.30;2022.40;;;;;;5056414;28;20435;-70
2021/04/18 11:42:22;;;;;;;13.77;11.20;;;282.30;1996.80;;;;;;5056614;28;20350;-76
2021/04/18 11:44:49;;;;;;;11.77;9.30;;;282.30;2022.40;;;;;;5056324;28;20417;-71
2021/04/18 11:47:15;;;;;;;17.17;13.95;;;282.20;2048.00;;;;;;5038392;28;20434;-74
2021/04/18 11:49:41;;;;;;;21.92;17.17;;;282.20;2048.00;;;;;;5056169;28;20379;-71
2021/04/18 11:52:07;;;;;;;18.98;14.93;;;282.20;2073.60;;;;;;5056108;28;20370;-73
2021/04/18 11:54:33;;;;;;;24.95;18.45;;;282.10;2073.60;;;;;;5056517;28;20347;-71
2021/04/18 11:56:59;;;;;;;11.55;9.85;;;282.00;2073.60;;;;;;5056266;28;20370;-74
2021/04/18 11:59:25;;;;;;;15.40;10.73;;;281.80;2073.60;;;;;;5056214;28;20369;-75
2021/04/18 12:01:52;;;;;;;12.95;10.50;;;281.80;2124.80;;;;;;5056356;28;20027;-70
2021/04/18 12:04:18;;;;;;;17.55;13.98;;;281.80;2124.80;;;;;;5056190;28;20029;-72
2021/04/18 12:06:44;;;;;;;13.10;11.32;;;281.90;2124.80;;;;;;5055988;28;20370;-71